Time;durP1;ratioP1;P1;durP2;ratioP2;P2;SDS_P1;SDS_P2;PMS_P1;PMS_P2;Temp;Humidity;BMP_temperature;BMP_pressure;BME280_temperature;BME280_humidity;BME280_pressure;Samples;Min_cycle;Max_cycle;Signal;HPM_P1;HPM_P2
2022/12/09 00:01:26;;;;;;;1.70;1.38;;;;;;;;;;5069886;28;20127;-43
2022/12/09 00:03:53;;;;;;;2.28;1.70;;;;;;;;;;5065537;28;20078;-44
2022/12/09 00:06:21;;;;;;;2.80;1.10;;;;;;;;;;5065925;28;20029;-43
2022/12/09 00:08:47;;;;;;;2.42;1.45;;;;;;;;;;5070688;28;20521;-43
2022/12/09 00:11:13;;;;;;;2.15;1.30;;;;;;;;;;5067074;28;20033;-43
2022/12/09 00:13:39;;;;;;;2.83;1.90;;;;;;;;;;5069572;28;20106;-43
2022/12/09 00:16:10;;;;;;;4.97;1.38;;;;;;;;;;5069813;28;20024;-45
2022/12/09 00:18:36;;;;;;;1.65;1.20;;;;;;;;;;5069122;28;20060;-43
2022/12/09 00:21:12;;;;;;;1.27;1.00;;;;;;;;;;5070710;28;20383;-43
2022/12/09 00:23:38;;;;;;;1.67;1.13;;;;;;;;;;5067305;28;20029;-44
2022/12/09 00:26:04;;;;;;;2.00;1.60;;;;;;;;;;5064230;28;20037;-45
2022/12/09 00:28:30;;;;;;;2.20;1.50;;;;;;;;;;5070220;28;20025;-43
2022/12/09 00:31:00;;;;;;;2.08;1.20;;;;;;;;;;5069951;28;20028;-44
2022/12/09 00:33:26;;;;;;;2.42;1.60;;;;;;;;;;5042669;28;20074;-43
2022/12/09 00:35:52;;;;;;;2.40;1.27;;;;;;;;;;5070766;28;20048;-43
2022/12/09 00:38:18;;;;;;;2.22;1.27;;;;;;;;;;5069136;28;20037;-44
2022/12/09 00:40:44;;;;;;;1.85;1.25;;;;;;;;;;5074187;28;20036;-43
2022/12/09 00:43:10;;;;;;;1.88;1.33;;;;;;;;;;5073058;28;20082;-43
2022/12/09 00:45:36;;;;;;;1.48;1.00;;;;;;;;;;5074152;28;20029;-43
2022/12/09 00:48:02;;;;;;;1.35;1.15;;;;;;;;;;5073944;28;20039;-43
2022/12/09 00:50:27;;;;;;;1.90;1.30;;;;;;;;;;5070682;28;20039;-43
2022/12/09 00:52:53;;;;;;;1.92;1.20;;;;;;;;;;5071980;28;20381;-43
2022/12/09 00:55:19;;;;;;;1.77;1.40;;;;;;;;;;5072569;28;20052;-43
2022/12/09 00:57:45;;;;;;;1.50;1.10;;;;;;;;;;5073523;28;20119;-43
2022/12/09 01:00:11;;;;;;;1.98;1.00;;;;;;;;;;5072200;28;20116;-43
2022/12/09 01:02:37;;;;;;;2.35;1.60;;;;;;;;;;5073324;28;20048;-43
2022/12/09 01:05:03;;;;;;;1.45;1.13;;;;;;;;;;5073639;28;20505;-45
2022/12/09 01:07:29;;;;;;;2.92;1.63;;;;;;;;;;5067174;28;20106;-43
2022/12/09 01:09:55;;;;;;;2.33;1.42;;;;;;;;;;5071523;28;20028;-43
2022/12/09 01:12:21;;;;;;;2.20;1.35;;;;;;;;;;5067287;28;20037;-44
2022/12/09 01:14:47;;;;;;;3.58;1.67;;;;;;;;;;5073691;28;20060;-43
2022/12/09 01:17:13;;;;;;;1.30;1.20;;;;;;;;;;5072480;28;20575;-43
2022/12/09 01:19:40;;;;;;;2.17;1.38;;;;;;;;;;5072441;28;20060;-43
2022/12/09 01:22:06;;;;;;;1.75;1.30;;;;;;;;;;5072520;28;20103;-45
2022/12/09 01:24:32;;;;;;;2.15;1.40;;;;;;;;;;5073236;28;20107;-43
2022/12/09 01:26:58;;;;;;;1.27;0.98;;;;;;;;;;5072461;28;20123;-43
2022/12/09 01:29:24;;;;;;;1.92;1.45;;;;;;;;;;5072600;28;20040;-44
2022/12/09 01:31:50;;;;;;;1.67;1.17;;;;;;;;;;5069777;28;20539;-43
2022/12/09 01:34:16;;;;;;;2.10;1.40;;;;;;;;;;5069158;28;20025;-43
2022/12/09 01:36:42;;;;;;;1.73;1.38;;;;;;;;;;5072746;28;20036;-43
2022/12/09 01:39:09;;;;;;;2.20;1.42;;;;;;;;;;5072452;28;20029;-43
2022/12/09 01:41:35;;;;;;;1.88;1.20;;;;;;;;;;5072479;28;20390;-43
2022/12/09 01:44:07;;;;;;;1.77;1.27;;;;;;;;;;5071579;28;20115;-43
2022/12/09 01:46:33;;;;;;;3.35;1.90;;;;;;;;;;5071846;28;20029;-43
2022/12/09 01:48:59;;;;;;;2.00;1.30;;;;;;;;;;5073303;28;20381;-44
2022/12/09 01:51:25;;;;;;;2.13;1.52;;;;;;;;;;5070892;28;20033;-43
2022/12/09 01:53:52;;;;;;;2.50;1.80;;;;;;;;;;5071116;28;20048;-43
2022/12/09 01:56:21;;;;;;;3.03;1.30;;;;;;;;;;5071031;28;20470;-43
2022/12/09 01:58:48;;;;;;;1.70;1.13;;;;;;;;;;5070630;28;20076;-43
2022/12/09 02:01:15;;;;;;;1.35;1.10;;;;;;;;;;5071642;28;20025;-43
2022/12/09 02:03:41;;;;;;;1.92;1.15;;;;;;;;;;5072381;28;20083;-43
2022/12/09 02:06:07;;;;;;;2.33;1.75;;;;;;;;;;5071840;28;20113;-45
2022/12/09 02:08:33;;;;;;;1.95;1.40;;;;;;;;;;5072712;28;20035;-43
2022/12/09 02:11:02;;;;;;;1.50;1.40;;;;;;;;;;5072442;28;20385;-43
2022/12/09 02:13:43;;;;;;;1.38;1.10;;;;;;;;;;5067265;28;20277;-43
2022/12/09 02:16:12;;;;;;;1.63;1.13;;;;;;;;;;5070857;28;20558;-45
2022/12/09 02:18:54;;;;;;;2.72;1.17;;;;;;;;;;5067121;28;20035;-43
2022/12/09 02:21:31;;;;;;;1.80;1.15;;;;;;;;;;5071181;28;20036;-43
2022/12/09 02:23:57;;;;;;;1.88;1.33;;;;;;;;;;5072231;28;20470;-43
2022/12/09 02:26:38;;;;;;;1.85;1.25;;;;;;;;;;5069808;28;20151;-43
2022/12/09 02:29:04;;;;;;;2.33;1.30;;;;;;;;;;5071532;28;20024;-45
2022/12/09 02:31:45;;;;;;;2.63;1.65;;;;;;;;;;5070678;28;20047;-45
2022/12/09 02:34:16;;;;;;;2.47;1.90;;;;;;;;;;5066338;28;20032;-43
2022/12/09 02:36:45;;;;;;;1.80;1.17;;;;;;;;;;5071491;28;20291;-43
2022/12/09 02:39:11;;;;;;;1.73;1.20;;;;;;;;;;5070468;28;20070;-43
2022/12/09 02:41:39;;;;;;;2.35;1.30;;;;;;;;;;5069514;28;20044;-43
2022/12/09 02:44:12;;;;;;;1.40;1.20;;;;;;;;;;5071504;28;20466;-45
2022/12/09 02:46:39;;;;;;;1.80;1.30;;;;;;;;;;5063740;28;20107;-43
2022/12/09 02:49:05;;;;;;;1.98;1.38;;;;;;;;;;5071671;28;20063;-45
2022/12/09 02:51:33;;;;;;;1.35;1.10;;;;;;;;;;5075538;28;20028;-43
2022/12/09 02:54:03;;;;;;;1.70;1.20;;;;;;;;;;5070167;28;20053;-43
2022/12/09 02:56:29;;;;;;;1.88;1.33;;;;;;;;;;5070430;28;20025;-43
2022/12/09 02:58:55;;;;;;;1.90;1.10;;;;;;;;;;5069994;28;20036;-43
2022/12/09 03:01:30;;;;;;;2.03;1.05;;;;;;;;;;5068896;28;20021;-43
2022/12/09 03:03:56;;;;;;;1.83;1.23;;;;;;;;;;5062938;28;20031;-43
2022/12/09 03:06:26;;;;;;;2.65;1.42;;;;;;;;;;5068947;28;20790;-44
2022/12/09 03:08:56;;;;;;;1.50;1.23;;;;;;;;;;5065944;28;20365;-43
2022/12/09 03:11:23;;;;;;;1.35;1.17;;;;;;;;;;5069505;28;20028;-44
2022/12/09 03:13:58;;;;;;;1.90;1.40;;;;;;;;;;5063280;28;20416;-43
2022/12/09 03:16:43;;;;;;;1.45;1.10;;;;;;;;;;5070154;28;20623;-43
2022/12/09 03:19:32;;;;;;;1.88;1.50;;;;;;;;;;5070684;28;20037;-43
2022/12/09 03:22:00;;;;;;;3.50;1.00;;;;;;;;;;5055805;28;20044;-43
2022/12/09 03:24:47;;;;;;;1.70;1.05;;;;;;;;;;5070185;28;20167;-43
2022/12/09 03:27:16;;;;;;;1.67;1.02;;;;;;;;;;5069876;28;20036;-43
2022/12/09 03:29:43;;;;;;;1.30;1.20;;;;;;;;;;5071556;28;20462;-43
2022/12/09 03:32:11;;;;;;;2.05;1.40;;;;;;;;;;5069352;28;20421;-44
2022/12/09 03:34:39;;;;;;;1.35;1.02;;;;;;;;;;5071463;28;20020;-43
2022/12/09 03:37:06;;;;;;;1.60;1.15;;;;;;;;;;5068118;28;20039;-45
2022/12/09 03:39:34;;;;;;;1.45;1.35;;;;;;;;;;5067680;28;20024;-43
2022/12/09 03:42:02;;;;;;;3.75;1.52;;;;;;;;;;5071003;28;20031;-43
2022/12/09 03:44:43;;;;;;;1.52;1.38;;;;;;;;;;5070092;28;20470;-44
2022/12/09 03:47:09;;;;;;;1.83;1.25;;;;;;;;;;5067830;28;20032;-43
2022/12/09 03:49:36;;;;;;;2.28;1.45;;;;;;;;;;5069793;28;20025;-44
2022/12/09 03:52:16;;;;;;;1.77;1.23;;;;;;;;;;5070311;28;20469;-43
2022/12/09 03:54:44;;;;;;;1.88;1.35;;;;;;;;;;5069310;28;20106;-43
2022/12/09 03:57:14;;;;;;;2.05;1.15;;;;;;;;;;5069666;28;20107;-43
2022/12/09 03:59:41;;;;;;;1.90;1.52;;;;;;;;;;5071167;28;20132;-43
2022/12/09 04:02:08;;;;;;;1.98;1.15;;;;;;;;;;5069489;28;20101;-46
2022/12/09 04:04:34;;;;;;;1.77;1.30;;;;;;;;;;5064966;28;20028;-43
2022/12/09 04:07:00;;;;;;;1.15;1.05;;;;;;;;;;5067673;28;20568;-43
2022/12/09 04:09:26;;;;;;;2.63;1.23;;;;;;;;;;5071908;28;20222;-43
2022/12/09 04:11:52;;;;;;;3.42;1.08;;;;;;;;;;5070516;28;20489;-43
2022/12/09 04:14:18;;;;;;;2.00;1.27;;;;;;;;;;5072227;28;20053;-43
2022/12/09 04:16:44;;;;;;;1.52;1.20;;;;;;;;;;5071898;28;20502;-43
2022/12/09 04:19:10;;;;;;;1.50;1.33;;;;;;;;;;5071353;28;20025;-43
2022/12/09 04:21:36;;;;;;;1.75;1.38;;;;;;;;;;5074156;28;20488;-43
2022/12/09 04:24:02;;;;;;;2.00;1.30;;;;;;;;;;5074487;28;20154;-43
2022/12/09 04:26:28;;;;;;;1.90;1.30;;;;;;;;;;5073736;28;20032;-43
2022/12/09 04:28:54;;;;;;;2.28;1.52;;;;;;;;;;5076117;28;20035;-43
2022/12/09 04:31:20;;;;;;;1.88;1.40;;;;;;;;;;5072053;28;20020;-43
2022/12/09 04:33:46;;;;;;;1.65;1.30;;;;;;;;;;5074449;28;20025;-42
2022/12/09 04:36:14;;;;;;;3.00;1.50;;;;;;;;;;5064867;28;20111;-43
2022/12/09 04:38:40;;;;;;;3.38;2.33;;;;;;;;;;5070531;28;20086;-43
2022/12/09 04:41:06;;;;;;;4.72;2.28;;;;;;;;;;5072547;28;20032;-44
2022/12/09 04:43:32;;;;;;;1.75;1.40;;;;;;;;;;5073280;28;20036;-43
2022/12/09 04:46:02;;;;;;;1.55;1.27;;;;;;;;;;5072210;28;20063;-43
2022/12/09 04:48:28;;;;;;;2.22;1.30;;;;;;;;;;5072794;28;20036;-43
2022/12/09 04:50:54;;;;;;;2.13;1.13;;;;;;;;;;5073738;28;20027;-43
2022/12/09 04:53:21;;;;;;;2.00;1.73;;;;;;;;;;5072480;28;20062;-43
2022/12/09 04:55:47;;;;;;;2.10;1.40;;;;;;;;;;5073980;28;20025;-43
2022/12/09 04:58:13;;;;;;;2.10;1.30;;;;;;;;;;5071282;28;20040;-43
2022/12/09 05:00:39;;;;;;;2.03;1.40;;;;;;;;;;5077110;28;20024;-43
2022/12/09 05:03:05;;;;;;;1.98;1.20;;;;;;;;;;5072967;28;20042;-45
2022/12/09 05:05:31;;;;;;;1.70;1.27;;;;;;;;;;5073759;28;20115;-43
2022/12/09 05:07:56;;;;;;;1.67;1.20;;;;;;;;;;5073422;28;20107;-43
2022/12/09 05:10:22;;;;;;;2.25;1.42;;;;;;;;;;5072880;28;20051;-43
2022/12/09 05:12:48;;;;;;;2.15;1.40;;;;;;;;;;5064153;28;20111;-43
2022/12/09 05:15:14;;;;;;;1.63;1.25;;;;;;;;;;5068688;28;20033;-43
2022/12/09 05:17:40;;;;;;;2.58;1.42;;;;;;;;;;5074058;28;20058;-43
2022/12/09 05:20:07;;;;;;;1.40;1.30;;;;;;;;;;5071157;28;20032;-45
2022/12/09 05:22:33;;;;;;;2.08;1.58;;;;;;;;;;5065212;28;20036;-43
2022/12/09 05:24:59;;;;;;;1.88;1.40;;;;;;;;;;5071608;28;20024;-43
2022/12/09 05:27:25;;;;;;;1.85;1.33;;;;;;;;;;5072395;28;20077;-43
2022/12/09 05:29:51;;;;;;;2.33;1.83;;;;;;;;;;5073335;28;20414;-43
2022/12/09 05:32:17;;;;;;;2.28;1.40;;;;;;;;;;5075296;28;20020;-43
2022/12/09 05:34:43;;;;;;;2.30;1.30;;;;;;;;;;5072792;28;20048;-43
2022/12/09 05:37:13;;;;;;;2.20;1.33;;;;;;;;;;5071910;28;20043;-43
2022/12/09 05:39:38;;;;;;;2.03;1.40;;;;;;;;;;5070038;28;20028;-43
2022/12/09 05:42:04;;;;;;;1.80;1.50;;;;;;;;;;5065416;28;20086;-45
2022/12/09 05:44:30;;;;;;;2.05;1.30;;;;;;;;;;5072834;28;20039;-43
2022/12/09 05:46:56;;;;;;;2.40;1.40;;;;;;;;;;5072398;28;20028;-44
2022/12/09 05:49:22;;;;;;;2.67;1.63;;;;;;;;;;5075167;28;20107;-43
2022/12/09 05:51:48;;;;;;;3.13;1.75;;;;;;;;;;5072738;28;20377;-43
2022/12/09 05:54:14;;;;;;;2.25;1.30;;;;;;;;;;5071682;28;20127;-43
2022/12/09 05:56:40;;;;;;;2.50;1.73;;;;;;;;;;5072498;28;20033;-43
2022/12/09 05:59:06;;;;;;;1.50;1.40;;;;;;;;;;5072688;28;20032;-45
2022/12/09 06:01:32;;;;;;;1.73;1.42;;;;;;;;;;5070809;28;20118;-43
2022/12/09 06:03:58;;;;;;;2.08;1.50;;;;;;;;;;5072877;28;20029;-44
2022/12/09 06:06:26;;;;;;;2.50;1.45;;;;;;;;;;5070069;28;20260;-43
2022/12/09 06:08:55;;;;;;;5.07;1.58;;;;;;;;;;5072430;28;20380;-43
2022/12/09 06:11:21;;;;;;;3.78;1.70;;;;;;;;;;5071201;28;20042;-43
2022/12/09 06:13:47;;;;;;;4.70;1.80;;;;;;;;;;5070731;28;20104;-43
2022/12/09 06:16:14;;;;;;;4.93;2.30;;;;;;;;;;5070611;28;20036;-43
2022/12/09 06:18:40;;;;;;;3.25;1.63;;;;;;;;;;5074128;28;20025;-43
2022/12/09 06:21:07;;;;;;;5.05;2.10;;;;;;;;;;5071080;28;20041;-46
2022/12/09 06:23:34;;;;;;;7.00;2.13;;;;;;;;;;5071350;28;20025;-43
2022/12/09 06:26:00;;;;;;;6.18;2.08;;;;;;;;;;5071702;28;20016;-43
2022/12/09 06:28:26;;;;;;;5.32;2.20;;;;;;;;;;5070515;28;20662;-43
2022/12/09 06:30:52;;;;;;;7.00;2.10;;;;;;;;;;5071832;28;20020;-44
2022/12/09 06:33:18;;;;;;;11.60;2.10;;;;;;;;;;5071033;28;20053;-43
2022/12/09 06:35:44;;;;;;;5.75;2.67;;;;;;;;;;5069447;28;20028;-43
2022/12/09 06:38:10;;;;;;;8.95;2.00;;;;;;;;;;5069839;28;20090;-44
2022/12/09 06:40:40;;;;;;;5.55;2.13;;;;;;;;;;5071783;28;20382;-43
2022/12/09 06:43:06;;;;;;;4.03;2.10;;;;;;;;;;5062620;28;20355;-46
2022/12/09 06:45:32;;;;;;;7.78;2.13;;;;;;;;;;5071643;28;20070;-43
2022/12/09 06:47:58;;;;;;;6.50;2.03;;;;;;;;;;5070573;28;20037;-44
2022/12/09 06:50:24;;;;;;;5.20;1.75;;;;;;;;;;5062456;28;20036;-44
2022/12/09 06:52:50;;;;;;;4.70;1.90;;;;;;;;;;5071188;28;20439;-44
2022/12/09 06:55:16;;;;;;;7.32;2.17;;;;;;;;;;5070499;28;20040;-44
2022/12/09 06:57:42;;;;;;;3.75;1.90;;;;;;;;;;5070653;28;20037;-44
2022/12/09 07:00:08;;;;;;;4.50;1.60;;;;;;;;;;5070931;28;20040;-46
2022/12/09 07:02:34;;;;;;;4.90;2.00;;;;;;;;;;5071023;28;20025;-44
2022/12/09 07:05:00;;;;;;;5.57;2.30;;;;;;;;;;5071780;28;20077;-43
2022/12/09 07:07:26;;;;;;;3.47;1.75;;;;;;;;;;5067266;28;20028;-44
2022/12/09 07:09:52;;;;;;;5.18;1.90;;;;;;;;;;5072453;28;20028;-44
2022/12/09 07:12:18;;;;;;;5.00;1.83;;;;;;;;;;5070341;28;20030;-44
2022/12/09 07:14:44;;;;;;;6.38;2.15;;;;;;;;;;5068713;28;20454;-44
2022/12/09 07:17:17;;;;;;;5.10;2.13;;;;;;;;;;5067550;28;20028;-44
2022/12/09 07:19:43;;;;;;;4.55;1.88;;;;;;;;;;5071446;28;20029;-44
2022/12/09 07:22:08;;;;;;;3.60;2.03;;;;;;;;;;5070073;28;20039;-46
2022/12/09 07:24:36;;;;;;;6.53;2.67;;;;;;;;;;5071358;28;20466;-43
2022/12/09 07:27:03;;;;;;;3.97;1.80;;;;;;;;;;5070669;28;20028;-44
2022/12/09 07:29:30;;;;;;;4.75;2.17;;;;;;;;;;5070189;28;20044;-44
2022/12/09 07:31:56;;;;;;;3.65;1.75;;;;;;;;;;5070915;28;20078;-44
2022/12/09 07:34:22;;;;;;;2.50;1.67;;;;;;;;;;5070473;28;20024;-44
2022/12/09 07:36:48;;;;;;;3.00;1.73;;;;;;;;;;5070526;28;20033;-44
2022/12/09 07:39:16;;;;;;;4.38;2.00;;;;;;;;;;5070467;28;20377;-44
2022/12/09 07:41:42;;;;;;;3.35;2.28;;;;;;;;;;5070977;28;20422;-44
2022/12/09 07:44:08;;;;;;;4.18;1.55;;;;;;;;;;5070467;28;20473;-45
2022/12/09 07:46:35;;;;;;;7.78;2.20;;;;;;;;;;5070543;28;20035;-43
2022/12/09 07:49:01;;;;;;;4.20;1.88;;;;;;;;;;5073229;28;20127;-43
2022/12/09 07:51:28;;;;;;;3.63;1.73;;;;;;;;;;5073681;28;20618;-44
2022/12/09 07:53:54;;;;;;;11.55;3.25;;;;;;;;;;5074624;28;20049;-44
2022/12/09 07:56:21;;;;;;;3.35;1.60;;;;;;;;;;5073969;28;20119;-44
2022/12/09 07:58:47;;;;;;;4.13;2.13;;;;;;;;;;5075186;28;20099;-44
2022/12/09 08:01:17;;;;;;;2.80;1.90;;;;;;;;;;5068425;28;20066;-43
2022/12/09 08:03:43;;;;;;;3.65;2.35;;;;;;;;;;5074843;28;20415;-43
2022/12/09 08:06:13;;;;;;;3.35;2.08;;;;;;;;;;5073626;28;20055;-46
2022/12/09 08:08:39;;;;;;;2.85;1.75;;;;;;;;;;5075044;28;20070;-44
2022/12/09 08:11:07;;;;;;;2.67;1.70;;;;;;;;;;5074632;28;20035;-46
2022/12/09 08:13:33;;;;;;;3.17;1.95;;;;;;;;;;5074436;28;20021;-44
2022/12/09 08:16:05;;;;;;;3.63;2.08;;;;;;;;;;5073510;28;20048;-44
2022/12/09 08:18:32;;;;;;;4.57;2.30;;;;;;;;;;5072028;28;20035;-44
2022/12/09 08:20:58;;;;;;;4.78;2.17;;;;;;;;;;5074758;28;20024;-44
2022/12/09 08:23:24;;;;;;;3.00;1.92;;;;;;;;;;5073379;28;20058;-44
2022/12/09 08:25:54;;;;;;;3.10;2.00;;;;;;;;;;5074032;28;20024;-44
2022/12/09 08:28:20;;;;;;;2.83;1.63;;;;;;;;;;5073413;28;20107;-44
2022/12/09 08:30:46;;;;;;;5.88;2.00;;;;;;;;;;5073430;28;20031;-44
2022/12/09 08:33:12;;;;;;;3.83;2.22;;;;;;;;;;5072700;28;20032;-44
2022/12/09 08:35:38;;;;;;;2.85;1.80;;;;;;;;;;5074471;28;20032;-44
2022/12/09 08:38:04;;;;;;;2.72;1.90;;;;;;;;;;5073968;28;20078;-44
2022/12/09 08:40:30;;;;;;;2.40;1.88;;;;;;;;;;5073543;28;20031;-44
2022/12/09 08:42:56;;;;;;;5.28;2.03;;;;;;;;;;5073740;28;20029;-44
2022/12/09 08:45:22;;;;;;;3.25;2.20;;;;;;;;;;5073021;28;20028;-44
2022/12/09 08:47:48;;;;;;;4.18;1.88;;;;;;;;;;5073515;28;20682;-43
2022/12/09 08:50:14;;;;;;;2.85;1.73;;;;;;;;;;5073057;28;20031;-44
2022/12/09 08:52:41;;;;;;;3.42;1.92;;;;;;;;;;5073839;28;20439;-43
2022/12/09 08:55:08;;;;;;;3.65;1.63;;;;;;;;;;5072859;28;20048;-46
2022/12/09 08:57:34;;;;;;;4.38;2.88;;;;;;;;;;5073296;28;20064;-44
2022/12/09 09:00:00;;;;;;;3.40;2.00;;;;;;;;;;5073956;28;20041;-43
2022/12/09 09:02:26;;;;;;;3.90;1.85;;;;;;;;;;5072574;28;20106;-44
2022/12/09 09:04:52;;;;;;;2.80;2.05;;;;;;;;;;5073727;28;20020;-45
2022/12/09 09:07:18;;;;;;;2.17;1.73;;;;;;;;;;5072684;28;20243;-43
2022/12/09 09:09:44;;;;;;;2.95;2.10;;;;;;;;;;5074055;28;20463;-44
2022/12/09 09:12:10;;;;;;;3.70;1.77;;;;;;;;;;5072302;28;20048;-44
2022/12/09 09:14:36;;;;;;;3.65;2.05;;;;;;;;;;5073676;28;20530;-44
2022/12/09 09:17:02;;;;;;;4.20;2.15;;;;;;;;;;5072835;28;20033;-44
2022/12/09 09:19:28;;;;;;;3.15;1.98;;;;;;;;;;5072702;28;20186;-44
2022/12/09 09:21:54;;;;;;;2.35;1.77;;;;;;;;;;5073239;28;20028;-44
2022/12/09 09:24:21;;;;;;;3.05;2.25;;;;;;;;;;5072655;28;20033;-44
2022/12/09 09:26:48;;;;;;;4.72;2.20;;;;;;;;;;5072681;28;20059;-45
2022/12/09 09:29:15;;;;;;;3.42;2.00;;;;;;;;;;5062266;28;20037;-45
2022/12/09 09:31:41;;;;;;;5.78;2.05;;;;;;;;;;5069606;28;20470;-44
2022/12/09 09:34:07;;;;;;;4.20;1.50;;;;;;;;;;5067320;28;20052;-47
2022/12/09 09:36:33;;;;;;;3.80;2.30;;;;;;;;;;5067527;28;20036;-45
2022/12/09 09:38:59;;;;;;;3.03;1.77;;;;;;;;;;5065504;28;20028;-46
2022/12/09 09:41:41;;;;;;;4.40;2.10;;;;;;;;;;5070427;28;20183;-44
2022/12/09 09:44:34;;;;;;;2.67;1.90;;;;;;;;;;5065194;28;20371;-47
2022/12/09 09:47:00;;;;;;;;;;;;;;;;;;5054056;28;20039;-46
2022/12/09 09:49:26;;;;;;;3.95;2.33;;;;;;;;;;5069278;28;20467;-44
2022/12/09 09:51:52;;;;;;;2.35;1.70;;;;;;;;;;5068834;28;20070;-44
2022/12/09 09:54:18;;;;;;;2.58;1.77;;;;;;;;;;5068318;28;20541;-44
2022/12/09 09:56:53;;;;;;;2.50;1.83;;;;;;;;;;5071621;28;20154;-44
2022/12/09 09:59:32;;;;;;;4.75;2.28;;;;;;;;;;5064141;28;20140;-45
2022/12/09 10:02:07;;;;;;;5.82;2.13;;;;;;;;;;5071849;28;20031;-45
2022/12/09 10:04:33;;;;;;;3.35;2.00;;;;;;;;;;5070885;28;20040;-45
2022/12/09 10:07:12;;;;;;;3.55;1.77;;;;;;;;;;5062972;28;20021;-43
2022/12/09 10:09:52;;;;;;;3.05;1.98;;;;;;;;;;5064490;28;20052;-44
2022/12/09 10:12:20;;;;;;;2.90;2.38;;;;;;;;;;5063478;28;20056;-44
2022/12/09 10:14:46;;;;;;;1.98;1.30;;;;;;;;;;5064868;28;20098;-44
2022/12/09 10:17:12;;;;;;;5.43;2.00;;;;;;;;;;5069990;28;20090;-43
2022/12/09 10:19:44;;;;;;;2.60;1.60;;;;;;;;;;5068222;28;20123;-44
2022/12/09 10:22:37;;;;;;;4.20;1.65;;;;;;;;;;5066397;28;20024;-44
2022/12/09 10:25:14;;;;;;;3.58;2.30;;;;;;;;;;5063688;28;21602;-44
2022/12/09 10:27:47;;;;;;;3.80;2.20;;;;;;;;;;5067570;28;20103;-43
2022/12/09 10:30:14;;;;;;;2.00;1.80;;;;;;;;;;5066961;28;20644;-45
2022/12/09 10:32:41;;;;;;;2.45;1.80;;;;;;;;;;5063211;28;20021;-44
2022/12/09 10:35:13;;;;;;;2.55;1.90;;;;;;;;;;5065376;28;20044;-46
2022/12/09 10:37:39;;;;;;;2.92;1.88;;;;;;;;;;5070806;28;20059;-44
2022/12/09 10:40:07;;;;;;;2.22;1.60;;;;;;;;;;5068962;28;20059;-46
2022/12/09 10:43:37;;;;;;;3.13;2.03;;;;;;;;;;5069080;28;20024;-44
2022/12/09 10:45:33;;;;;;;5.30;2.08;;;;;;;;;;5051208;28;20037;-44
2022/12/09 10:47:59;;;;;;;4.57;2.10;;;;;;;;;;5070352;28;20024;-45
2022/12/09 10:50:30;;;;;;;4.25;2.13;;;;;;;;;;5068867;28;20124;-44
2022/12/09 10:52:56;;;;;;;2.53;1.92;;;;;;;;;;5067397;28;20024;-45
2022/12/09 10:55:43;;;;;;;3.80;1.80;;;;;;;;;;5066505;28;20131;-45
2022/12/09 10:58:15;;;;;;;2.53;1.90;;;;;;;;;;5062448;28;20041;-46
2022/12/09 11:00:41;;;;;;;2.55;1.85;;;;;;;;;;5069404;28;20037;-44
2022/12/09 11:03:23;;;;;;;2.72;1.88;;;;;;;;;;5070475;28;20036;-46
2022/12/09 11:05:49;;;;;;;;;;;;;;;;;;5068968;28;20033;-44
2022/12/09 11:08:20;;;;;;;2.78;2.03;;;;;;;;;;5069344;28;19915;-44
2022/12/09 11:10:48;;;;;;;2.42;2.08;;;;;;;;;;5066119;28;20037;-44
2022/12/09 11:13:16;;;;;;;3.17;2.08;;;;;;;;;;5044979;28;20029;-44
2022/12/09 11:15:43;;;;;;;3.72;2.47;;;;;;;;;;5065307;28;20120;-44
2022/12/09 11:18:21;;;;;;;2.17;1.85;;;;;;;;;;5060900;28;20111;-45
2022/12/09 11:20:55;;;;;;;3.42;2.05;;;;;;;;;;5064967;28;20036;-44
2022/12/09 11:23:21;;;;;;;2.45;1.70;;;;;;;;;;5067787;28;20046;-44
2022/12/09 11:25:56;;;;;;;3.17;1.90;;;;;;;;;;5062453;28;20066;-44
2022/12/09 11:28:34;;;;;;;2.88;2.10;;;;;;;;;;5063727;28;20037;-44
2022/12/09 11:31:02;;;;;;;2.72;1.88;;;;;;;;;;5064182;28;20044;-45
2022/12/09 11:33:28;;;;;;;2.75;1.75;;;;;;;;;;5060788;28;20033;-46
2022/12/09 11:35:56;;;;;;;3.28;2.13;;;;;;;;;;5068885;28;20090;-45
2022/12/09 11:38:34;;;;;;;3.53;1.83;;;;;;;;;;5061547;28;20095;-44
2022/12/09 11:41:03;;;;;;;2.88;2.28;;;;;;;;;;5065483;28;20156;-44
2022/12/09 11:43:30;;;;;;;3.67;2.00;;;;;;;;;;5067477;28;20083;-47
2022/12/09 11:45:57;;;;;;;2.22;1.73;;;;;;;;;;5066015;28;20029;-46
2022/12/09 11:48:30;;;;;;;3.25;1.85;;;;;;;;;;5069168;28;20037;-44
2022/12/09 11:50:56;;;;;;;2.70;1.70;;;;;;;;;;5069368;28;20032;-44
2022/12/09 11:53:30;;;;;;;5.00;1.83;;;;;;;;;;5068537;28;20024;-44
2022/12/09 11:56:09;;;;;;;2.97;2.20;;;;;;;;;;5069093;28;20033;-44
2022/12/09 11:58:44;;;;;;;2.75;2.15;;;;;;;;;;5054314;28;20037;-46
2022/12/09 12:01:29;;;;;;;4.88;2.22;;;;;;;;;;5068703;28;20041;-45
2022/12/09 12:03:56;;;;;;;3.88;2.30;;;;;;;;;;5066910;28;20055;-44
2022/12/09 12:06:29;;;;;;;4.25;2.15;;;;;;;;;;5064980;28;20501;-45
2022/12/09 12:09:21;;;;;;;3.25;2.33;;;;;;;;;;5063910;28;20036;-45
2022/12/09 12:12:06;;;;;;;2.63;1.98;;;;;;;;;;5063905;28;20072;-44
2022/12/09 12:14:34;;;;;;;2.80;2.10;;;;;;;;;;5060216;28;20033;-44
2022/12/09 12:17:14;;;;;;;5.63;2.35;;;;;;;;;;5066603;28;20052;-45
2022/12/09 12:19:41;;;;;;;2.78;1.98;;;;;;;;;;5066473;28;20429;-45
2022/12/09 12:22:13;;;;;;;3.28;2.38;;;;;;;;;;5064443;28;20075;-47
2022/12/09 12:24:57;;;;;;;2.22;1.75;;;;;;;;;;5063534;28;20024;-44
2022/12/09 12:27:38;;;;;;;2.88;2.00;;;;;;;;;;5062919;28;20041;-44
2022/12/09 12:30:18;;;;;;;2.65;2.15;;;;;;;;;;5063003;28;20029;-44
2022/12/09 12:33:01;;;;;;;3.10;2.00;;;;;;;;;;5069412;28;20094;-44
2022/12/09 12:35:26;;;;;;;3.60;2.22;;;;;;;;;;5070923;28;20284;-44
2022/12/09 12:37:58;;;;;;;3.90;2.05;;;;;;;;;;5074945;28;20051;-44
2022/12/09 12:40:32;;;;;;;2.83;2.03;;;;;;;;;;5074503;28;20473;-44
2022/12/09 12:48:50;;;;;;;2.63;2.00;;;;;;;;;;5069807;28;20040;-44
2022/12/09 12:51:15;;;;;;;2.47;1.98;;;;;;;;;;5065416;28;20028;-44
2022/12/09 12:53:46;;;;;;;3.40;2.17;;;;;;;;;;5073683;28;20059;-44
2022/12/09 12:56:16;;;;;;;2.72;2.13;;;;;;;;;;5072216;28;20024;-44
2022/12/09 12:58:45;;;;;;;2.97;1.98;;;;;;;;;;5067233;28;20078;-44
2022/12/09 13:01:29;;;;;;;3.03;2.03;;;;;;;;;;5072374;28;20028;-45
2022/12/09 13:03:55;;;;;;;2.88;1.75;;;;;;;;;;5075892;28;20043;-44
2022/12/09 13:06:23;;;;;;;4.35;2.38;;;;;;;;;;5072861;28;20475;-44
2022/12/09 13:08:59;;;;;;;3.25;1.98;;;;;;;;;;5072235;28;20025;-44
2022/12/09 13:11:29;;;;;;;2.75;2.17;;;;;;;;;;5064456;28;20202;-44
2022/12/09 13:13:57;;;;;;;4.20;2.35;;;;;;;;;;5073198;28;20470;-44
2022/12/09 13:16:38;;;;;;;3.78;2.45;;;;;;;;;;5069405;28;20036;-44
2022/12/09 13:19:24;;;;;;;3.42;2.15;;;;;;;;;;5066131;28;20070;-46
2022/12/09 13:21:51;;;;;;;4.07;2.40;;;;;;;;;;5072878;28;20032;-44
2022/12/09 13:24:25;;;;;;;3.72;2.60;;;;;;;;;;5072724;28;20100;-44
2022/12/09 13:27:10;;;;;;;4.57;2.25;;;;;;;;;;5072977;28;20427;-44
2022/12/09 13:29:45;;;;;;;4.07;2.92;;;;;;;;;;5072752;28;20024;-44
2022/12/09 13:32:14;;;;;;;3.30;2.65;;;;;;;;;;5063557;28;20025;-44
2022/12/09 13:34:41;;;;;;;4.13;2.50;;;;;;;;;;5072854;28;20031;-44
2022/12/09 13:37:25;;;;;;;6.28;2.80;;;;;;;;;;5065494;28;20033;-47
2022/12/09 13:39:51;;;;;;;3.72;2.35;;;;;;;;;;5073080;28;20071;-44
2022/12/09 13:45:15;;;;;;;6.07;2.80;;;;;;;;;;5071768;28;20043;-47
2022/12/09 13:47:41;;;;;;;3.63;2.55;;;;;;;;;;5071909;28;20054;-44
2022/12/09 13:50:29;;;;;;;3.15;2.45;;;;;;;;;;5072672;28;20024;-47
2022/12/09 13:52:57;;;;;;;3.78;3.00;;;;;;;;;;5068898;28;20036;-44
2022/12/09 13:55:35;;;;;;;5.50;2.80;;;;;;;;;;5071368;28;20048;-44
2022/12/09 13:58:19;;;;;;;3.78;2.70;;;;;;;;;;5065524;28;20028;-44
2022/12/09 14:00:57;;;;;;;4.28;2.60;;;;;;;;;;5072686;28;20496;-44
2022/12/09 14:03:29;;;;;;;5.10;3.15;;;;;;;;;;5059208;28;20083;-44
2022/12/09 14:05:56;;;;;;;5.03;3.47;;;;;;;;;;5070880;28;20032;-44
2022/12/09 14:08:24;;;;;;;5.93;3.17;;;;;;;;;;5071536;28;20029;-45
2022/12/09 14:10:51;;;;;;;4.13;3.22;;;;;;;;;;5072227;28;20489;-45
2022/12/09 14:13:21;;;;;;;4.22;2.40;;;;;;;;;;5070933;28;20520;-44
2022/12/09 14:15:48;;;;;;;4.15;2.58;;;;;;;;;;5072613;28;20035;-44
2022/12/09 14:18:32;;;;;;;3.67;2.70;;;;;;;;;;5071117;28;20115;-44
2022/12/09 14:21:17;;;;;;;3.17;2.42;;;;;;;;;;5067313;28;20071;-44
2022/12/09 14:24:01;;;;;;;5.28;3.17;;;;;;;;;;5072160;28;20036;-44
2022/12/09 14:26:38;;;;;;;3.05;2.53;;;;;;;;;;5070708;28;20029;-44
2022/12/09 14:29:04;;;;;;;3.97;2.60;;;;;;;;;;5066264;28;20017;-44
2022/12/09 14:31:44;;;;;;;3.88;2.47;;;;;;;;;;5071012;28;20021;-44
2022/12/09 14:34:21;;;;;;;3.65;2.42;;;;;;;;;;5071474;28;20118;-44
2022/12/09 14:36:51;;;;;;;3.60;2.50;;;;;;;;;;5069791;28;20041;-44
2022/12/09 14:39:24;;;;;;;3.03;2.50;;;;;;;;;;5071280;28;20089;-44
2022/12/09 14:41:54;;;;;;;4.25;2.78;;;;;;;;;;5071437;28;20051;-44
2022/12/09 14:44:30;;;;;;;3.25;2.70;;;;;;;;;;5071086;28;20066;-44
2022/12/09 14:47:16;;;;;;;3.72;2.40;;;;;;;;;;5071464;28;20374;-44
2022/12/09 14:49:42;;;;;;;4.47;3.00;;;;;;;;;;5071640;28;20640;-45
2022/12/09 14:52:29;;;;;;;7.72;2.45;;;;;;;;;;5070185;28;20099;-47
2022/12/09 14:54:57;;;;;;;4.18;3.00;;;;;;;;;;5070497;28;20489;-44
2022/12/09 14:57:34;;;;;;;5.60;2.88;;;;;;;;;;5069773;28;20043;-44
2022/12/09 15:00:00;;;;;;;3.13;2.30;;;;;;;;;;5071224;28;20373;-44
2022/12/09 15:02:30;;;;;;;3.88;2.63;;;;;;;;;;5070264;28;20570;-44
2022/12/09 15:04:58;;;;;;;3.22;2.30;;;;;;;;;;5071767;28;20031;-44